BTK6012 WAMG-WAAA
Flight info
| Callsign | BTK6012 |
|---|---|
| Flight time | 2h 1m |
| Altitude | 39000 |
| Route | PAL W51 MKS |
| Aircraft | A320/M-SDFGHIRWY/EB2 |
Departure
| Time | 2026-04-24 04:05 |
|---|---|
| Airport | Jalaluddin Airport (WAMG) |
Arrival
| Time | 2026-04-24 06:07 |
|---|---|
| Airport | Sultan Hasanuddin International Airport (WAAA) |
| Time | Latitude | Longitude | Altitude | Speed | Heading |
|---|---|---|---|---|---|
| 2026-04-24 03:16 | 0.64025 | 122.84487 | 106 ft | 0 kts | 4° |
| 2026-04-24 03:18 | 0.64030 | 122.84431 | 104 ft | 0 kts | 7° |
| 2026-04-24 03:41 | 0.64027 | 122.84431 | 107 ft | 2 kts | 7° |
| 2026-04-24 03:41 | 0.64009 | 122.84428 | 104 ft | 3 kts | 6° |
| 2026-04-24 03:41 | 0.63989 | 122.84427 | 103 ft | 3 kts | 0° |
| 2026-04-24 03:42 | 0.63968 | 122.84427 | 102 ft | 3 kts | 351° |
| 2026-04-24 03:42 | 0.63949 | 122.84432 | 102 ft | 3 kts | 335° |
| 2026-04-24 03:42 | 0.63940 | 122.84436 | 102 ft | 1 kts | 330° |
| 2026-04-24 03:42 | 0.63938 | 122.84437 | 102 ft | 0 kts | 330° |
| 2026-04-24 03:58 | 0.63945 | 122.84432 | 106 ft | 3 kts | 324° |
| 2026-04-24 03:58 | 0.63944 | 122.84427 | 106 ft | 0 kts | 271° |
| 2026-04-24 03:59 | 0.63944 | 122.84397 | 103 ft | 6 kts | 277° |
| 2026-04-24 03:59 | 0.63931 | 122.84347 | 102 ft | 9 kts | 222° |
| 2026-04-24 03:59 | 0.63861 | 122.84329 | 110 ft | 12 kts | 192° |
| 2026-04-24 03:59 | 0.63803 | 122.84308 | 107 ft | 4 kts | 257° |
| 2026-04-24 04:00 | 0.63800 | 122.84281 | 110 ft | 7 kts | 270° |
| 2026-04-24 04:00 | 0.63802 | 122.84196 | 113 ft | 12 kts | 276° |
| 2026-04-24 04:00 | 0.63813 | 122.84105 | 116 ft | 15 kts | 279° |
| 2026-04-24 04:00 | 0.63832 | 122.83993 | 119 ft | 14 kts | 280° |
| 2026-04-24 04:01 | 0.63842 | 122.83934 | 120 ft | 15 kts | 280° |
| 2026-04-24 04:01 | 0.63831 | 122.83855 | 119 ft | 11 kts | 238° |
| 2026-04-24 04:01 | 0.63830 | 122.83806 | 120 ft | 0 kts | 294° |
| 2026-04-24 04:01 | 0.63838 | 122.83802 | 120 ft | 3 kts | 336° |
| 2026-04-24 04:02 | 0.63863 | 122.83810 | 119 ft | 2 kts | 41° |
| 2026-04-24 04:02 | 0.63862 | 122.83817 | 119 ft | 1 kts | 90° |
| 2026-04-24 04:02 | 0.63861 | 122.83829 | 119 ft | 0 kts | 95° |
| 2026-04-24 04:04 | 0.63858 | 122.83866 | 116 ft | 31 kts | 95° |
| 2026-04-24 04:05 | 0.63778 | 122.84473 | 103 ft | 140 kts | 98° |
| 2026-04-24 04:05 | 0.63620 | 122.85712 | 178 ft | 209 kts | 97° |
| 2026-04-24 04:05 | 0.63388 | 122.87131 | 1394 ft | 204 kts | 104° |
| 2026-04-24 04:05 | 0.62824 | 122.88431 | 2806 ft | 208 kts | 124° |
| 2026-04-24 04:06 | 0.61745 | 122.89441 | 4169 ft | 221 kts | 152° |
| 2026-04-24 04:06 | 0.60235 | 122.89726 | 5593 ft | 232 kts | 186° |
| 2026-04-24 04:06 | 0.58743 | 122.89067 | 7079 ft | 240 kts | 221° |
| 2026-04-24 04:06 | 0.57858 | 122.87693 | 8536 ft | 241 kts | 255° |
| 2026-04-24 04:07 | 0.57871 | 122.86046 | 10047 ft | 237 kts | 290° |
| 2026-04-24 04:07 | 0.58741 | 122.84682 | 11358 ft | 237 kts | 313° |
| 2026-04-24 04:07 | 0.59822 | 122.83385 | 12370 ft | 250 kts | 306° |
| 2026-04-24 04:07 | 0.60670 | 122.81869 | 13667 ft | 248 kts | 294° |
| 2026-04-24 04:08 | 0.61179 | 122.80270 | 14971 ft | 234 kts | 277° |
| 2026-04-24 04:08 | 0.61074 | 122.78723 | 16205 ft | 221 kts | 249° |
| 2026-04-24 04:08 | 0.60265 | 122.77400 | 16887 ft | 233 kts | 220° |
| 2026-04-24 04:08 | 0.58940 | 122.76441 | 17638 ft | 236 kts | 206° |
| 2026-04-24 04:09 | 0.57626 | 122.75431 | 18413 ft | 246 kts | 232° |
| 2026-04-24 04:09 | 0.56867 | 122.73883 | 19099 ft | 252 kts | 253° |
| 2026-04-24 04:09 | 0.56595 | 122.72130 | 19786 ft | 259 kts | 270° |
| 2026-04-24 04:09 | 0.56758 | 122.70340 | 20421 ft | 267 kts | 273° |
| 2026-04-24 04:10 | 0.56474 | 122.68465 | 20895 ft | 281 kts | 246° |
| 2026-04-24 04:10 | 0.55502 | 122.66693 | 21296 ft | 300 kts | 235° |
| 2026-04-24 04:10 | 0.54327 | 122.64917 | 21651 ft | 321 kts | 236° |
| 2026-04-24 04:11 | 0.51885 | 122.60807 | 22372 ft | 364 kts | 240° |
| 2026-04-24 04:11 | 0.50666 | 122.58515 | 22742 ft | 383 kts | 241° |
| 2026-04-24 04:11 | 0.49434 | 122.56124 | 23104 ft | 398 kts | 242° |
| 2026-04-24 04:11 | 0.48172 | 122.53647 | 23468 ft | 411 kts | 242° |
| 2026-04-24 04:12 | 0.46853 | 122.51057 | 23775 ft | 423 kts | 242° |
| 2026-04-24 04:12 | 0.45493 | 122.48391 | 24083 ft | 435 kts | 242° |
| 2026-04-24 04:12 | 0.44102 | 122.45668 | 24392 ft | 445 kts | 242° |
| 2026-04-24 04:12 | 0.42695 | 122.42916 | 24700 ft | 454 kts | 242° |
| 2026-04-24 04:13 | 0.41241 | 122.40077 | 25019 ft | 463 kts | 242° |
| 2026-04-24 04:13 | 0.39756 | 122.37192 | 25334 ft | 470 kts | 242° |
| 2026-04-24 04:13 | 0.38244 | 122.34274 | 25658 ft | 476 kts | 242° |
| 2026-04-24 04:13 | 0.36703 | 122.31304 | 25985 ft | 482 kts | 242° |
| 2026-04-24 04:14 | 0.35149 | 122.28307 | 26313 ft | 487 kts | 242° |
| 2026-04-24 04:14 | 0.33602 | 122.25322 | 26640 ft | 491 kts | 242° |
| 2026-04-24 04:14 | 0.32025 | 122.22276 | 26979 ft | 495 kts | 242° |
| 2026-04-24 04:14 | 0.30433 | 122.19202 | 27319 ft | 498 kts | 242° |
| 2026-04-24 04:15 | 0.28831 | 122.16107 | 27663 ft | 500 kts | 242° |
| 2026-04-24 04:15 | 0.27273 | 122.13096 | 28003 ft | 503 kts | 242° |
| 2026-04-24 04:15 | 0.25658 | 122.09977 | 28356 ft | 504 kts | 242° |
| 2026-04-24 04:15 | 0.24048 | 122.06866 | 28711 ft | 504 kts | 242° |
| 2026-04-24 04:16 | 0.22433 | 122.03747 | 29076 ft | 504 kts | 242° |
| 2026-04-24 04:16 | 0.20840 | 122.00669 | 29436 ft | 504 kts | 242° |
| 2026-04-24 04:16 | 0.19229 | 121.97558 | 29700 ft | 507 kts | 242° |
| 2026-04-24 04:16 | 0.17603 | 121.94419 | 29838 ft | 510 kts | 242° |
| 2026-04-24 04:17 | 0.15966 | 121.91257 | 30144 ft | 508 kts | 242° |
| 2026-04-24 04:17 | 0.14363 | 121.88159 | 30433 ft | 508 kts | 242° |
| 2026-04-24 04:17 | 0.12734 | 121.85013 | 30731 ft | 507 kts | 242° |
| 2026-04-24 04:17 | 0.11109 | 121.81874 | 31031 ft | 507 kts | 242° |
| 2026-04-24 04:18 | 0.09486 | 121.78740 | 31336 ft | 506 kts | 242° |
| 2026-04-24 04:18 | 0.07876 | 121.75631 | 31642 ft | 506 kts | 242° |
| 2026-04-24 04:18 | 0.06259 | 121.72506 | 31950 ft | 505 kts | 242° |
| 2026-04-24 04:18 | 0.04661 | 121.69421 | 32259 ft | 504 kts | 242° |
| 2026-04-24 04:19 | 0.03049 | 121.66308 | 32582 ft | 503 kts | 242° |
| 2026-04-24 04:19 | 0.01439 | 121.63199 | 32904 ft | 502 kts | 242° |
| 2026-04-24 04:19 | -0.00147 | 121.60135 | 33224 ft | 500 kts | 242° |
| 2026-04-24 04:19 | -0.01755 | 121.57029 | 33558 ft | 499 kts | 242° |
| 2026-04-24 04:20 | -0.03347 | 121.53956 | 33880 ft | 498 kts | 242° |
| 2026-04-24 04:20 | -0.04927 | 121.50904 | 34178 ft | 497 kts | 242° |
| 2026-04-24 04:20 | -0.06517 | 121.47833 | 34471 ft | 495 kts | 242° |
| 2026-04-24 04:20 | -0.08082 | 121.44810 | 34749 ft | 495 kts | 242° |
| 2026-04-24 04:21 | -0.09673 | 121.41739 | 34887 ft | 497 kts | 242° |
| 2026-04-24 04:21 | -0.11274 | 121.38649 | 34901 ft | 501 kts | 242° |
| 2026-04-24 04:21 | -0.14481 | 121.32455 | 34901 ft | 507 kts | 242° |
| 2026-04-24 04:22 | -0.17732 | 121.26178 | 34897 ft | 499 kts | 242° |
| 2026-04-24 04:22 | -0.19296 | 121.23156 | 34901 ft | 484 kts | 242° |
| 2026-04-24 04:22 | -0.20842 | 121.20170 | 34899 ft | 492 kts | 242° |
| 2026-04-24 04:23 | -0.23951 | 121.14166 | 34898 ft | 478 kts | 242° |
| 2026-04-24 04:23 | -0.27009 | 121.08261 | 34901 ft | 476 kts | 242° |
| 2026-04-24 04:24 | -0.30095 | 121.02304 | 34904 ft | 493 kts | 242° |
| 2026-04-24 04:24 | -0.33288 | 120.96137 | 34897 ft | 502 kts | 242° |
| 2026-04-24 04:25 | -0.36497 | 120.89939 | 34902 ft | 508 kts | 242° |
| 2026-04-24 04:25 | -0.39758 | 120.83639 | 34902 ft | 510 kts | 242° |
| 2026-04-24 04:26 | -0.42954 | 120.77464 | 34901 ft | 495 kts | 242° |
| 2026-04-24 04:26 | -0.46157 | 120.71281 | 34902 ft | 504 kts | 242° |
| 2026-04-24 04:27 | -0.47749 | 120.68204 | 34899 ft | 486 kts | 242° |
| 2026-04-24 04:27 | -0.49254 | 120.65295 | 34899 ft | 474 kts | 242° |
| 2026-04-24 04:27 | -0.52346 | 120.59327 | 34901 ft | 492 kts | 242° |
| 2026-04-24 04:28 | -0.55531 | 120.53176 | 34903 ft | 502 kts | 242° |
| 2026-04-24 04:28 | -0.58739 | 120.46980 | 34904 ft | 507 kts | 242° |
| 2026-04-24 04:29 | -0.61998 | 120.40683 | 34907 ft | 510 kts | 242° |
| 2026-04-24 04:29 | -0.63603 | 120.37581 | 34905 ft | 490 kts | 242° |
| 2026-04-24 04:29 | -0.65117 | 120.34654 | 34907 ft | 470 kts | 242° |
| 2026-04-24 04:30 | -0.66592 | 120.31803 | 34909 ft | 451 kts | 242° |
| 2026-04-24 04:30 | -0.68026 | 120.29033 | 34911 ft | 447 kts | 242° |
| 2026-04-24 04:30 | -0.70805 | 120.23665 | 34917 ft | 428 kts | 242° |
| 2026-04-24 04:31 | -0.72199 | 120.20973 | 34916 ft | 440 kts | 242° |
| 2026-04-24 04:31 | -0.73616 | 120.18239 | 34919 ft | 452 kts | 242° |
| 2026-04-24 04:31 | -0.75079 | 120.15415 | 34918 ft | 463 kts | 242° |
| 2026-04-24 04:31 | -0.76588 | 120.12501 | 34921 ft | 473 kts | 242° |
| 2026-04-24 04:32 | -0.79661 | 120.06564 | 34923 ft | 491 kts | 242° |
| 2026-04-24 04:32 | -0.82845 | 120.00411 | 34920 ft | 502 kts | 242° |
| 2026-04-24 04:33 | -0.86065 | 119.94199 | 34921 ft | 508 kts | 240° |
| 2026-04-24 04:33 | -0.90359 | 119.88613 | 34921 ft | 507 kts | 221° |
| 2026-04-24 04:34 | -0.95980 | 119.84500 | 34919 ft | 494 kts | 212° |
| 2026-04-24 04:34 | -0.98781 | 119.82642 | 34918 ft | 474 kts | 212° |
| 2026-04-24 04:34 | -1.01488 | 119.80841 | 34920 ft | 467 kts | 212° |
| 2026-04-24 04:35 | -1.07027 | 119.77161 | 34916 ft | 486 kts | 212° |
| 2026-04-24 04:35 | -1.12669 | 119.73410 | 34912 ft | 480 kts | 212° |
| 2026-04-24 04:36 | -1.15386 | 119.71600 | 34907 ft | 461 kts | 212° |
| 2026-04-24 04:36 | -1.18081 | 119.69808 | 34909 ft | 470 kts | 212° |
| 2026-04-24 04:36 | -1.23630 | 119.66122 | 34913 ft | 489 kts | 212° |
| 2026-04-24 04:37 | -1.29355 | 119.62316 | 35072 ft | 495 kts | 212° |
| 2026-04-24 04:37 | -1.32224 | 119.60406 | 35254 ft | 496 kts | 212° |
| 2026-04-24 04:37 | -1.35110 | 119.58486 | 35456 ft | 496 kts | 212° |
| 2026-04-24 04:38 | -1.37986 | 119.56573 | 35682 ft | 495 kts | 212° |
| 2026-04-24 04:38 | -1.40818 | 119.54689 | 35918 ft | 495 kts | 212° |
| 2026-04-24 04:38 | -1.43689 | 119.52780 | 36161 ft | 494 kts | 212° |
| 2026-04-24 04:38 | -1.46561 | 119.50870 | 36403 ft | 494 kts | 212° |
| 2026-04-24 04:39 | -1.49399 | 119.48982 | 36638 ft | 494 kts | 212° |
| 2026-04-24 04:39 | -1.52266 | 119.47075 | 36892 ft | 493 kts | 212° |
| 2026-04-24 04:39 | -1.55123 | 119.45174 | 37127 ft | 493 kts | 211° |
| 2026-04-24 04:39 | -1.57968 | 119.43280 | 37133 ft | 497 kts | 211° |
| 2026-04-24 04:40 | -1.60843 | 119.41377 | 37384 ft | 491 kts | 211° |
| 2026-04-24 04:40 | -1.63602 | 119.39548 | 37479 ft | 469 kts | 211° |
| 2026-04-24 04:40 | -1.66270 | 119.37764 | 37417 ft | 453 kts | 211° |
| 2026-04-24 04:40 | -1.68847 | 119.36042 | 37329 ft | 437 kts | 211° |
| 2026-04-24 04:41 | -1.71353 | 119.34371 | 37130 ft | 426 kts | 211° |
| 2026-04-24 04:41 | -1.73800 | 119.32743 | 36941 ft | 419 kts | 211° |
| 2026-04-24 04:41 | -1.76161 | 119.31172 | 36884 ft | 404 kts | 211° |
| 2026-04-24 04:41 | -1.78518 | 119.29605 | 36887 ft | 411 kts | 211° |
| 2026-04-24 04:42 | -1.80930 | 119.28005 | 36884 ft | 422 kts | 211° |
| 2026-04-24 04:42 | -1.83410 | 119.26357 | 36883 ft | 433 kts | 211° |
| 2026-04-24 04:42 | -1.88521 | 119.22958 | 36881 ft | 454 kts | 211° |
| 2026-04-24 04:43 | -1.93902 | 119.19377 | 36876 ft | 473 kts | 212° |
| 2026-04-24 04:43 | -1.99449 | 119.15685 | 36876 ft | 490 kts | 212° |
| 2026-04-24 04:44 | -2.05187 | 119.11864 | 36877 ft | 499 kts | 212° |
| 2026-04-24 04:44 | -2.08037 | 119.09964 | 36871 ft | 480 kts | 212° |
| 2026-04-24 04:44 | -2.10759 | 119.08148 | 36873 ft | 461 kts | 212° |
| 2026-04-24 04:45 | -2.13349 | 119.06421 | 36873 ft | 443 kts | 211° |
| 2026-04-24 04:45 | -2.15868 | 119.04743 | 36872 ft | 426 kts | 211° |
| 2026-04-24 04:45 | -2.18293 | 119.03127 | 36872 ft | 409 kts | 211° |
| 2026-04-24 04:45 | -2.20592 | 119.01596 | 36872 ft | 393 kts | 211° |
| 2026-04-24 04:46 | -2.22826 | 119.00108 | 36873 ft | 377 kts | 211° |
| 2026-04-24 04:46 | -2.25001 | 118.98661 | 36873 ft | 375 kts | 211° |
| 2026-04-24 04:46 | -2.29434 | 118.95717 | 36872 ft | 384 kts | 211° |
| 2026-04-24 04:47 | -2.33843 | 118.92781 | 36873 ft | 382 kts | 211° |
| 2026-04-24 04:47 | -2.38280 | 118.89826 | 36873 ft | 382 kts | 211° |
| 2026-04-24 04:48 | -2.42638 | 118.86923 | 36875 ft | 382 kts | 211° |
| 2026-04-24 04:48 | -2.47070 | 118.83971 | 36877 ft | 382 kts | 211° |
| 2026-04-24 04:49 | -2.51478 | 118.81034 | 36875 ft | 382 kts | 211° |
| 2026-04-24 04:49 | -2.55911 | 118.78081 | 36877 ft | 382 kts | 211° |
| 2026-04-24 04:50 | -2.60347 | 118.75126 | 36874 ft | 383 kts | 211° |
| 2026-04-24 04:50 | -2.64856 | 118.72385 | 36874 ft | 379 kts | 198° |
| 2026-04-24 04:51 | -2.67388 | 118.71705 | 36871 ft | 374 kts | 184° |
| 2026-04-24 04:51 | -2.69979 | 118.71655 | 36873 ft | 370 kts | 170° |
| 2026-04-24 04:51 | -2.75047 | 118.72328 | 36875 ft | 369 kts | 169° |
| 2026-04-24 04:52 | -2.80151 | 118.72982 | 36873 ft | 369 kts | 169° |
| 2026-04-24 04:52 | -2.85226 | 118.73632 | 36875 ft | 369 kts | 169° |
| 2026-04-24 04:53 | -2.90320 | 118.74285 | 36875 ft | 369 kts | 169° |
| 2026-04-24 04:53 | -2.95397 | 118.74936 | 36874 ft | 368 kts | 169° |
| 2026-04-24 04:54 | -3.00466 | 118.75587 | 36876 ft | 368 kts | 169° |
| 2026-04-24 04:54 | -3.05529 | 118.76236 | 36873 ft | 368 kts | 169° |
| 2026-04-24 04:55 | -3.10581 | 118.76884 | 36872 ft | 368 kts | 169° |
| 2026-04-24 04:55 | -3.15650 | 118.77535 | 36869 ft | 369 kts | 169° |
| 2026-04-24 04:56 | -3.20749 | 118.78189 | 36868 ft | 369 kts | 169° |
| 2026-04-24 04:56 | -3.25823 | 118.78841 | 36867 ft | 368 kts | 169° |
| 2026-04-24 04:57 | -3.30889 | 118.79491 | 36868 ft | 369 kts | 169° |
| 2026-04-24 04:57 | -3.35992 | 118.80146 | 36861 ft | 369 kts | 169° |
| 2026-04-24 04:58 | -3.41062 | 118.80797 | 36862 ft | 369 kts | 169° |
| 2026-04-24 04:58 | -3.46150 | 118.81451 | 36859 ft | 369 kts | 169° |
| 2026-04-24 04:59 | -3.51251 | 118.82106 | 36858 ft | 369 kts | 169° |
| 2026-04-24 04:59 | -3.56321 | 118.82758 | 36859 ft | 369 kts | 169° |
| 2026-04-24 05:00 | -3.61428 | 118.83414 | 36857 ft | 369 kts | 169° |
| 2026-04-24 05:00 | -3.66500 | 118.84066 | 36855 ft | 369 kts | 169° |
| 2026-04-24 05:01 | -3.71604 | 118.84722 | 36852 ft | 369 kts | 169° |
| 2026-04-24 05:01 | -3.76677 | 118.85374 | 36850 ft | 369 kts | 169° |
| 2026-04-24 05:02 | -3.81789 | 118.86032 | 36848 ft | 369 kts | 169° |
| 2026-04-24 05:02 | -3.86865 | 118.86685 | 36848 ft | 370 kts | 169° |
| 2026-04-24 05:03 | -3.91958 | 118.87340 | 36853 ft | 370 kts | 169° |
| 2026-04-24 05:03 | -3.97068 | 118.87997 | 36848 ft | 370 kts | 169° |
| 2026-04-24 05:04 | -4.02186 | 118.88655 | 36844 ft | 370 kts | 169° |
| 2026-04-24 05:04 | -4.07274 | 118.89310 | 36850 ft | 370 kts | 169° |
| 2026-04-24 05:05 | -4.12367 | 118.89965 | 36853 ft | 370 kts | 169° |
| 2026-04-24 05:05 | -4.17495 | 118.90625 | 36845 ft | 371 kts | 169° |
| 2026-04-24 05:06 | -4.22636 | 118.90924 | 36846 ft | 373 kts | 178° |
| 2026-04-24 05:06 | -4.27819 | 118.90912 | 36848 ft | 373 kts | 177° |
| 2026-04-24 05:07 | -4.33037 | 118.90915 | 36848 ft | 373 kts | 177° |
| 2026-04-24 05:07 | -4.38221 | 118.90916 | 36848 ft | 374 kts | 177° |
| 2026-04-24 05:08 | -4.43398 | 118.90916 | 36848 ft | 374 kts | 177° |
| 2026-04-24 05:08 | -4.47740 | 118.90916 | 36849 ft | 374 kts | 177° |
| 2026-04-24 05:09 | -4.53799 | 118.90916 | 36844 ft | 374 kts | 177° |
| 2026-04-24 05:09 | -4.58129 | 118.90916 | 36844 ft | 374 kts | 177° |
| 2026-04-24 05:10 | -4.64186 | 118.90916 | 36845 ft | 374 kts | 177° |
| 2026-04-24 05:10 | -4.68524 | 118.90916 | 36845 ft | 374 kts | 177° |
| 2026-04-24 05:11 | -4.73735 | 118.90916 | 36843 ft | 374 kts | 177° |
| 2026-04-24 05:11 | -4.78910 | 118.90916 | 36847 ft | 374 kts | 178° |
| 2026-04-24 05:12 | -4.84131 | 118.90914 | 36847 ft | 374 kts | 178° |
| 2026-04-24 05:12 | -4.89316 | 118.90913 | 36846 ft | 374 kts | 178° |
| 2026-04-24 05:13 | -4.97109 | 118.90911 | 36845 ft | 374 kts | 178° |
| 2026-04-24 05:14 | -5.02327 | 118.90910 | 36844 ft | 374 kts | 178° |
| 2026-04-24 05:14 | -5.07509 | 118.90909 | 36844 ft | 374 kts | 178° |
| 2026-04-24 05:15 | -5.12723 | 118.90907 | 36843 ft | 374 kts | 178° |
| 2026-04-24 05:15 | -5.17951 | 118.90907 | 36842 ft | 374 kts | 178° |
| 2026-04-24 05:16 | -5.23112 | 118.91124 | 36847 ft | 370 kts | 162° |
| 2026-04-24 05:16 | -5.25473 | 118.92092 | 36847 ft | 365 kts | 144° |
| 2026-04-24 05:16 | -5.27408 | 118.93721 | 36844 ft | 361 kts | 127° |
| 2026-04-24 05:16 | -5.28739 | 118.95791 | 36846 ft | 357 kts | 111° |
| 2026-04-24 05:17 | -5.29415 | 118.98171 | 36845 ft | 354 kts | 94° |
| 2026-04-24 05:17 | -5.29450 | 119.03084 | 36843 ft | 353 kts | 88° |
| 2026-04-24 05:18 | -5.29424 | 119.08013 | 36844 ft | 352 kts | 88° |
| 2026-04-24 05:18 | -5.29406 | 119.12913 | 36844 ft | 353 kts | 88° |
| 2026-04-24 05:19 | -5.29388 | 119.17834 | 36843 ft | 353 kts | 88° |
| 2026-04-24 05:19 | -5.29370 | 119.22762 | 36841 ft | 352 kts | 88° |
| 2026-04-24 05:20 | -5.29351 | 119.27659 | 36841 ft | 353 kts | 88° |
| 2026-04-24 05:20 | -5.29332 | 119.32595 | 36844 ft | 352 kts | 88° |
| 2026-04-24 05:21 | -5.29312 | 119.37496 | 36840 ft | 352 kts | 88° |
| 2026-04-24 05:21 | -5.29092 | 119.39901 | 36845 ft | 350 kts | 75° |
| 2026-04-24 05:21 | -5.28185 | 119.42170 | 36842 ft | 350 kts | 58° |
| 2026-04-24 05:21 | -5.26672 | 119.44086 | 36842 ft | 352 kts | 43° |
| 2026-04-24 05:22 | -5.24684 | 119.45513 | 36844 ft | 353 kts | 30° |
| 2026-04-24 05:22 | -5.20390 | 119.47954 | 36841 ft | 353 kts | 31° |
| 2026-04-24 05:23 | -5.16149 | 119.50397 | 36838 ft | 353 kts | 31° |
| 2026-04-24 05:23 | -5.11884 | 119.52856 | 36838 ft | 353 kts | 31° |
| 2026-04-24 05:24 | -5.07650 | 119.55302 | 36838 ft | 354 kts | 31° |
| 2026-04-24 05:24 | -5.05355 | 119.56326 | 36835 ft | 367 kts | 19° |
| 2026-04-24 05:24 | -5.02853 | 119.56934 | 36841 ft | 380 kts | 13° |
| 2026-04-24 05:24 | -5.00214 | 119.57476 | 36837 ft | 392 kts | 13° |
| 2026-04-24 05:25 | -4.97547 | 119.58022 | 36836 ft | 400 kts | 13° |
| 2026-04-24 05:25 | -4.92126 | 119.59111 | 36841 ft | 398 kts | 13° |
| 2026-04-24 05:26 | -4.86697 | 119.60192 | 36282 ft | 398 kts | 13° |
| 2026-04-24 05:26 | -4.83977 | 119.60733 | 35473 ft | 405 kts | 13° |
| 2026-04-24 05:26 | -4.81171 | 119.61293 | 34437 ft | 418 kts | 14° |
| 2026-04-24 05:26 | -4.78257 | 119.61874 | 33186 ft | 432 kts | 14° |
| 2026-04-24 05:27 | -4.75261 | 119.62473 | 31879 ft | 446 kts | 14° |
| 2026-04-24 05:27 | -4.72209 | 119.63083 | 30562 ft | 458 kts | 13° |
| 2026-04-24 05:27 | -4.69124 | 119.63940 | 29666 ft | 456 kts | 24° |
| 2026-04-24 05:27 | -4.66163 | 119.64976 | 29370 ft | 442 kts | 15° |
| 2026-04-24 05:28 | -4.63212 | 119.65468 | 29193 ft | 427 kts | 9° |
| 2026-04-24 05:28 | -4.60313 | 119.65818 | 29032 ft | 411 kts | 9° |
| 2026-04-24 05:28 | -4.57522 | 119.66152 | 28880 ft | 397 kts | 4° |
| 2026-04-24 05:28 | -4.54820 | 119.65881 | 28741 ft | 386 kts | 347° |
| 2026-04-24 05:29 | -4.52423 | 119.64846 | 28625 ft | 376 kts | 328° |
| 2026-04-24 05:29 | -4.50512 | 119.63116 | 28497 ft | 367 kts | 308° |
| 2026-04-24 05:29 | -4.49336 | 119.60898 | 28297 ft | 359 kts | 287° |
| 2026-04-24 05:29 | -4.49025 | 119.58452 | 28031 ft | 351 kts | 265° |
| 2026-04-24 05:30 | -4.49616 | 119.56121 | 27771 ft | 341 kts | 242° |
| 2026-04-24 05:30 | -4.50988 | 119.54251 | 27521 ft | 329 kts | 218° |
| 2026-04-24 05:30 | -4.52897 | 119.53109 | 27275 ft | 315 kts | 194° |
| 2026-04-24 05:30 | -4.55014 | 119.52847 | 27026 ft | 301 kts | 170° |
| 2026-04-24 05:31 | -4.56926 | 119.53436 | 26793 ft | 288 kts | 149° |
| 2026-04-24 05:31 | -4.58641 | 119.54435 | 26552 ft | 281 kts | 144° |
| 2026-04-24 05:31 | -4.60263 | 119.55493 | 26312 ft | 274 kts | 144° |
| 2026-04-24 05:31 | -4.61838 | 119.56543 | 26071 ft | 268 kts | 143° |
| 2026-04-24 05:32 | -4.63361 | 119.57563 | 25831 ft | 263 kts | 143° |
| 2026-04-24 05:32 | -4.64875 | 119.58577 | 25534 ft | 260 kts | 144° |
| 2026-04-24 05:32 | -4.66377 | 119.59583 | 25210 ft | 259 kts | 144° |
| 2026-04-24 05:32 | -4.67876 | 119.60588 | 24887 ft | 258 kts | 144° |
| 2026-04-24 05:33 | -4.69354 | 119.61562 | 24576 ft | 257 kts | 147° |
| 2026-04-24 05:33 | -4.70978 | 119.62307 | 24259 ft | 257 kts | 162° |
| 2026-04-24 05:33 | -4.72754 | 119.62578 | 23898 ft | 260 kts | 182° |
| 2026-04-24 05:34 | -4.75849 | 119.60725 | 23693 ft | 270 kts | 237° |
| 2026-04-24 05:34 | -4.76474 | 119.59001 | 23552 ft | 262 kts | 264° |
| 2026-04-24 05:34 | -4.76276 | 119.57189 | 23078 ft | 265 kts | 292° |
| 2026-04-24 05:34 | -4.75285 | 119.55669 | 22559 ft | 267 kts | 320° |
| 2026-04-24 05:35 | -4.73720 | 119.54768 | 22172 ft | 263 kts | 347° |
| 2026-04-24 05:35 | -4.71966 | 119.54687 | 21835 ft | 255 kts | 15° |
| 2026-04-24 05:35 | -4.70401 | 119.55428 | 21489 ft | 248 kts | 43° |
| 2026-04-24 05:35 | -4.69409 | 119.56807 | 21118 ft | 244 kts | 72° |
| 2026-04-24 05:36 | -4.69229 | 119.58468 | 20746 ft | 241 kts | 101° |
| 2026-04-24 05:36 | -4.69883 | 119.59975 | 20383 ft | 241 kts | 129° |
| 2026-04-24 05:36 | -4.71215 | 119.60971 | 20022 ft | 243 kts | 158° |
| 2026-04-24 05:36 | -4.72952 | 119.61148 | 19990 ft | 258 kts | 189° |
| 2026-04-24 05:37 | -4.74563 | 119.60451 | 20269 ft | 250 kts | 217° |
| 2026-04-24 05:37 | -4.75666 | 119.59128 | 20232 ft | 255 kts | 244° |
| 2026-04-24 05:37 | -4.76343 | 119.57449 | 20119 ft | 263 kts | 248° |
| 2026-04-24 05:37 | -4.76993 | 119.55726 | 19787 ft | 264 kts | 248° |
| 2026-04-24 05:38 | -4.77637 | 119.54018 | 19447 ft | 265 kts | 248° |
| 2026-04-24 05:38 | -4.78289 | 119.52292 | 19106 ft | 265 kts | 248° |
| 2026-04-24 05:38 | -4.78945 | 119.50558 | 18771 ft | 266 kts | 248° |
| 2026-04-24 05:38 | -4.79604 | 119.48821 | 18441 ft | 267 kts | 249° |
| 2026-04-24 05:39 | -4.79964 | 119.47002 | 18088 ft | 266 kts | 274° |
| 2026-04-24 05:39 | -4.79484 | 119.45231 | 17724 ft | 264 kts | 295° |
| 2026-04-24 05:39 | -4.78703 | 119.43587 | 17350 ft | 265 kts | 296° |
| 2026-04-24 05:39 | -4.77881 | 119.41931 | 16965 ft | 265 kts | 303° |
| 2026-04-24 05:40 | -4.76588 | 119.40643 | 16594 ft | 261 kts | 332° |
| 2026-04-24 05:40 | -4.74904 | 119.40144 | 16241 ft | 257 kts | 1° |
| 2026-04-24 05:40 | -4.73192 | 119.40520 | 15883 ft | 252 kts | 30° |
| 2026-04-24 05:40 | -4.71908 | 119.41670 | 15527 ft | 248 kts | 59° |
| 2026-04-24 05:41 | -4.71151 | 119.43198 | 15185 ft | 248 kts | 66° |
| 2026-04-24 05:41 | -4.70434 | 119.44776 | 14836 ft | 248 kts | 66° |
| 2026-04-24 05:41 | -4.69719 | 119.46354 | 14495 ft | 249 kts | 66° |
| 2026-04-24 05:41 | -4.69005 | 119.47933 | 14162 ft | 250 kts | 66° |
| 2026-04-24 05:42 | -4.68285 | 119.49524 | 13819 ft | 251 kts | 66° |
| 2026-04-24 05:42 | -4.67560 | 119.51126 | 13465 ft | 251 kts | 66° |
| 2026-04-24 05:42 | -4.66861 | 119.52711 | 13093 ft | 251 kts | 69° |
| 2026-04-24 05:42 | -4.66261 | 119.54356 | 12716 ft | 251 kts | 76° |
| 2026-04-24 05:43 | -4.66237 | 119.56086 | 12348 ft | 250 kts | 105° |
| 2026-04-24 05:43 | -4.67046 | 119.57598 | 11998 ft | 250 kts | 128° |
| 2026-04-24 05:43 | -4.68401 | 119.58682 | 11636 ft | 253 kts | 156° |
| 2026-04-24 05:43 | -4.70139 | 119.58962 | 11279 ft | 257 kts | 185° |
| 2026-04-24 05:44 | -4.71832 | 119.58376 | 10928 ft | 261 kts | 211° |
| 2026-04-24 05:44 | -4.73072 | 119.57095 | 10581 ft | 263 kts | 240° |
| 2026-04-24 05:44 | -4.73561 | 119.55338 | 10224 ft | 264 kts | 269° |
| 2026-04-24 05:44 | -4.73572 | 119.53492 | 9890 ft | 265 kts | 268° |
| 2026-04-24 05:45 | -4.73677 | 119.51648 | 9533 ft | 266 kts | 266° |
| 2026-04-24 05:45 | -4.73796 | 119.49768 | 9164 ft | 268 kts | 266° |
| 2026-04-24 05:45 | -4.73915 | 119.47921 | 8784 ft | 269 kts | 266° |
| 2026-04-24 05:45 | -4.74036 | 119.46043 | 8418 ft | 269 kts | 266° |
| 2026-04-24 05:46 | -4.74071 | 119.44174 | 8050 ft | 268 kts | 279° |
| 2026-04-24 05:46 | -4.73403 | 119.42487 | 7693 ft | 264 kts | 308° |
| 2026-04-24 05:46 | -4.72034 | 119.41289 | 7340 ft | 260 kts | 330° |
| 2026-04-24 05:46 | -4.70491 | 119.40331 | 6993 ft | 260 kts | 330° |
| 2026-04-24 05:47 | -4.68875 | 119.39595 | 6652 ft | 257 kts | 343° |
| 2026-04-24 05:47 | -4.67173 | 119.39023 | 6300 ft | 257 kts | 344° |
| 2026-04-24 05:47 | -4.65464 | 119.38458 | 5935 ft | 257 kts | 344° |
| 2026-04-24 05:47 | -4.63790 | 119.37900 | 5582 ft | 257 kts | 344° |
| 2026-04-24 05:48 | -4.62117 | 119.37337 | 5224 ft | 257 kts | 344° |
| 2026-04-24 05:48 | -4.60420 | 119.36763 | 4857 ft | 257 kts | 344° |
| 2026-04-24 05:48 | -4.58722 | 119.36187 | 4507 ft | 257 kts | 344° |
| 2026-04-24 05:48 | -4.57019 | 119.35609 | 4164 ft | 257 kts | 344° |
| 2026-04-24 05:49 | -4.55360 | 119.35045 | 4035 ft | 247 kts | 343° |
| 2026-04-24 05:49 | -4.53944 | 119.34185 | 4013 ft | 237 kts | 315° |
| 2026-04-24 05:49 | -4.53145 | 119.32797 | 4012 ft | 226 kts | 285° |
| 2026-04-24 05:49 | -4.53095 | 119.31279 | 4013 ft | 213 kts | 256° |
| 2026-04-24 05:50 | -4.53665 | 119.29971 | 4017 ft | 199 kts | 237° |
| 2026-04-24 05:50 | -4.54343 | 119.28815 | 4010 ft | 187 kts | 238° |
| 2026-04-24 05:50 | -4.54976 | 119.27691 | 3823 ft | 187 kts | 239° |
| 2026-04-24 05:50 | -4.55678 | 119.26422 | 4605 ft | 208 kts | 239° |
| 2026-04-24 05:51 | -4.56418 | 119.25109 | 5814 ft | 236 kts | 238° |
| 2026-04-24 05:51 | -4.57166 | 119.23815 | 6517 ft | 201 kts | 238° |
| 2026-04-24 05:51 | -4.57972 | 119.22433 | 6751 ft | 253 kts | 238° |
| 2026-04-24 05:51 | -4.58941 | 119.20788 | 6979 ft | 302 kts | 238° |
| 2026-04-24 05:52 | -4.60101 | 119.18834 | 7014 ft | 350 kts | 238° |
| 2026-04-24 05:52 | -4.61575 | 119.16729 | 7013 ft | 372 kts | 225° |
| 2026-04-24 05:52 | -4.63565 | 119.15244 | 7014 ft | 344 kts | 204° |
| 2026-04-24 05:52 | -4.65747 | 119.14653 | 7017 ft | 317 kts | 181° |
| 2026-04-24 05:53 | -4.67832 | 119.14927 | 7016 ft | 291 kts | 160° |
| 2026-04-24 05:53 | -4.69605 | 119.15738 | 7015 ft | 270 kts | 150° |
| 2026-04-24 05:53 | -4.71237 | 119.16544 | 7013 ft | 252 kts | 152° |
| 2026-04-24 05:53 | -4.72762 | 119.17262 | 7014 ft | 237 kts | 153° |
| 2026-04-24 05:54 | -4.74220 | 119.17928 | 7013 ft | 223 kts | 153° |
| 2026-04-24 05:54 | -4.75701 | 119.18602 | 7027 ft | 261 kts | 153° |
| 2026-04-24 05:54 | -4.77540 | 119.19445 | 7020 ft | 316 kts | 153° |
| 2026-04-24 05:54 | -4.79563 | 119.20362 | 7014 ft | 318 kts | 154° |
| 2026-04-24 05:55 | -4.81577 | 119.21265 | 7018 ft | 320 kts | 154° |
| 2026-04-24 05:55 | -4.83639 | 119.22193 | 7015 ft | 330 kts | 154° |
| 2026-04-24 05:55 | -4.85775 | 119.23155 | 7016 ft | 338 kts | 154° |
| 2026-04-24 05:55 | -4.87923 | 119.24125 | 7013 ft | 346 kts | 154° |
| 2026-04-24 05:56 | -4.90141 | 119.25126 | 7013 ft | 351 kts | 154° |
| 2026-04-24 05:56 | -4.92390 | 119.26142 | 7010 ft | 356 kts | 154° |
| 2026-04-24 05:56 | -4.94661 | 119.27168 | 7010 ft | 359 kts | 154° |
| 2026-04-24 05:56 | -4.96934 | 119.28195 | 7005 ft | 363 kts | 154° |
| 2026-04-24 05:57 | -4.99253 | 119.29243 | 6975 ft | 366 kts | 154° |
| 2026-04-24 05:57 | -5.01528 | 119.30271 | 6946 ft | 369 kts | 154° |
| 2026-04-24 05:57 | -5.03845 | 119.31317 | 6581 ft | 355 kts | 154° |
| 2026-04-24 05:57 | -5.06076 | 119.32324 | 5467 ft | 360 kts | 154° |
| 2026-04-24 05:58 | -5.08388 | 119.33372 | 4339 ft | 366 kts | 154° |
| 2026-04-24 05:58 | -5.10652 | 119.34398 | 3661 ft | 357 kts | 155° |
| 2026-04-24 05:58 | -5.12865 | 119.35399 | 3259 ft | 340 kts | 154° |
| 2026-04-24 05:58 | -5.14970 | 119.36350 | 3017 ft | 322 kts | 154° |
| 2026-04-24 05:59 | -5.16953 | 119.37247 | 2870 ft | 302 kts | 155° |
| 2026-04-24 05:59 | -5.18786 | 119.38077 | 2808 ft | 282 kts | 154° |
| 2026-04-24 05:59 | -5.20519 | 119.38860 | 2810 ft | 264 kts | 155° |
| 2026-04-24 05:59 | -5.22130 | 119.39588 | 2805 ft | 244 kts | 155° |
| 2026-04-24 06:00 | -5.23622 | 119.40262 | 2801 ft | 225 kts | 155° |
| 2026-04-24 06:00 | -5.24978 | 119.40881 | 2803 ft | 209 kts | 152° |
| 2026-04-24 06:00 | -5.26017 | 119.41778 | 2818 ft | 188 kts | 124° |
| 2026-04-24 06:00 | -5.26416 | 119.42937 | 2804 ft | 166 kts | 92° |
| 2026-04-24 06:01 | -5.26175 | 119.43995 | 2797 ft | 149 kts | 62° |
| 2026-04-24 06:01 | -5.25577 | 119.44757 | 2794 ft | 129 kts | 43° |
| 2026-04-24 06:01 | -5.24914 | 119.45271 | 2825 ft | 127 kts | 34° |
| 2026-04-24 06:01 | -5.24266 | 119.45657 | 2865 ft | 109 kts | 29° |
| 2026-04-24 06:02 | -5.23457 | 119.46045 | 3150 ft | 111 kts | 24° |
| 2026-04-24 06:02 | -5.22643 | 119.46375 | 3252 ft | 151 kts | 24° |
| 2026-04-24 06:02 | -5.21693 | 119.46792 | 3140 ft | 146 kts | 26° |
| 2026-04-24 06:02 | -5.20792 | 119.47255 | 2889 ft | 144 kts | 28° |
| 2026-04-24 06:03 | -5.19944 | 119.47768 | 2622 ft | 145 kts | 35° |
| 2026-04-24 06:03 | -5.19184 | 119.48412 | 2326 ft | 146 kts | 43° |
| 2026-04-24 06:03 | -5.18461 | 119.49161 | 1947 ft | 153 kts | 47° |
| 2026-04-24 06:03 | -5.17670 | 119.49922 | 1489 ft | 162 kts | 35° |
| 2026-04-24 06:04 | -5.16711 | 119.50524 | 1245 ft | 157 kts | 25° |
| 2026-04-24 06:04 | -5.15760 | 119.50933 | 1129 ft | 144 kts | 17° |
| 2026-04-24 06:04 | -5.14849 | 119.51256 | 1059 ft | 132 kts | 19° |
| 2026-04-24 06:04 | -5.14017 | 119.51625 | 923 ft | 128 kts | 24° |
| 2026-04-24 06:05 | -5.13274 | 119.52042 | 796 ft | 123 kts | 29° |
| 2026-04-24 06:05 | -5.12562 | 119.52485 | 661 ft | 118 kts | 28° |
| 2026-04-24 06:05 | -5.11859 | 119.52892 | 485 ft | 115 kts | 26° |
| 2026-04-24 06:05 | -5.11144 | 119.53306 | 398 ft | 119 kts | 27° |
| 2026-04-24 06:06 | -5.10451 | 119.53713 | 292 ft | 115 kts | 26° |
| 2026-04-24 06:06 | -5.09771 | 119.54128 | 210 ft | 111 kts | 26° |
| 2026-04-24 06:06 | -5.09070 | 119.54507 | 83 ft | 111 kts | 22° |
| 2026-04-24 06:06 | -5.08433 | 119.54849 | 40 ft | 85 kts | 32° |
| 2026-04-24 06:07 | -5.08193 | 119.55001 | 39 ft | 0 kts | 34° |
| 2026-04-24 06:07 | -5.08189 | 119.55000 | 39 ft | 1 kts | 359° |
| 2026-04-24 06:07 | -5.08155 | 119.54985 | 39 ft | 6 kts | 323° |
| 2026-04-24 06:07 | -5.08144 | 119.54972 | 38 ft | 5 kts | 310° |
| 2026-04-24 06:08 | -5.08120 | 119.54935 | 40 ft | 10 kts | 299° |
| 2026-04-24 06:08 | -5.08086 | 119.54877 | 41 ft | 2 kts | 315° |
| 2026-04-24 06:08 | -5.08061 | 119.54878 | 41 ft | 5 kts | 16° |
| 2026-04-24 06:08 | -5.08007 | 119.54905 | 41 ft | 13 kts | 26° |
| 2026-04-24 06:09 | -5.07911 | 119.54957 | 41 ft | 17 kts | 32° |
| 2026-04-24 06:09 | -5.07862 | 119.54988 | 41 ft | 5 kts | 31° |
| 2026-04-24 06:09 | -5.07797 | 119.55026 | 41 ft | 15 kts | 30° |
| 2026-04-24 06:09 | -5.07717 | 119.55071 | 41 ft | 13 kts | 29° |
| 2026-04-24 06:10 | -5.07655 | 119.55106 | 41 ft | 6 kts | 28° |
| 2026-04-24 06:10 | -5.07645 | 119.55110 | 41 ft | 2 kts | 21° |
| 2026-04-24 06:10 | -5.07601 | 119.55134 | 41 ft | 12 kts | 51° |
| 2026-04-24 06:11 | -5.07404 | 119.55251 | 41 ft | 19 kts | 28° |
| 2026-04-24 06:11 | -5.07280 | 119.55323 | 40 ft | 20 kts | 29° |
| 2026-04-24 06:11 | -5.07137 | 119.55403 | 41 ft | 25 kts | 31° |
| 2026-04-24 06:11 | -5.06972 | 119.55498 | 41 ft | 29 kts | 28° |
| 2026-04-24 06:12 | -5.06811 | 119.55594 | 39 ft | 26 kts | 30° |
| 2026-04-24 06:12 | -5.06671 | 119.55676 | 41 ft | 19 kts | 30° |
| 2026-04-24 06:12 | -5.06600 | 119.55653 | 41 ft | 15 kts | 309° |
| 2026-04-24 06:12 | -5.06515 | 119.55554 | 41 ft | 22 kts | 309° |
| 2026-04-24 06:13 | -5.06402 | 119.55420 | 41 ft | 28 kts | 310° |
| 2026-04-24 06:13 | -5.06279 | 119.55275 | 41 ft | 26 kts | 309° |
| 2026-04-24 06:13 | -5.06167 | 119.55148 | 41 ft | 16 kts | 329° |
| 2026-04-24 06:13 | -5.06076 | 119.55132 | 40 ft | 11 kts | 359° |
| 2026-04-24 06:14 | -5.05991 | 119.55129 | 40 ft | 15 kts | 357° |
| 2026-04-24 06:14 | -5.05918 | 119.55106 | 41 ft | 18 kts | 318° |
| 2026-04-24 06:14 | -5.05779 | 119.54944 | 41 ft | 27 kts | 310° |
| 2026-04-24 06:14 | -5.05756 | 119.54917 | 41 ft | 2 kts | 310° |
| 2026-04-24 06:15 | -5.05752 | 119.54870 | 42 ft | 6 kts | 212° |
| 2026-04-24 06:15 | -5.05785 | 119.54843 | 41 ft | 13 kts | 220° |
| 2026-04-24 06:15 | -5.05848 | 119.54794 | 41 ft | 9 kts | 205° |
| 2026-04-24 06:15 | -5.05913 | 119.54783 | 41 ft | 8 kts | 197° |
| 2026-04-24 06:16 | -5.05944 | 119.54761 | 41 ft | 7 kts | 224° |
| 2026-04-24 06:16 | -5.05974 | 119.54735 | 41 ft | 8 kts | 220° |
| 2026-04-24 06:16 | -5.05979 | 119.54725 | 41 ft | 2 kts | 253° |
| 2026-04-24 06:16 | -5.05968 | 119.54707 | 41 ft | 1 kts | 303° |
| 2026-04-24 06:17 | -5.05959 | 119.54696 | 41 ft | 3 kts | 308° |
| 2026-04-24 06:17 | -5.05947 | 119.54682 | 41 ft | 3 kts | 313° |
| 2026-04-24 06:17 | -5.05940 | 119.54673 | 41 ft | 0 kts | 306° |
| 2026-04-24 06:17 | -5.05935 | 119.54667 | 41 ft | 2 kts | 309° |
| 2026-04-24 06:18 | -5.05931 | 119.54663 | 41 ft | 2 kts | 309° |
| 2026-04-24 06:18 | -5.05930 | 119.54661 | 41 ft | 0 kts | 309° |